CDT,Max TemperatureF,Mean TemperatureF,Min TemperatureF,Max Dew PointF,MeanDew PointF,Min DewpointF,Max Humidity, Mean Humidity, Min Humidity, Max Sea Level PressureIn, Mean Sea Level PressureIn, Min Sea Level PressureIn, Max VisibilityMiles, Mean VisibilityMiles, Min VisibilityMiles, Max Wind SpeedMPH, Mean Wind SpeedMPH, Max Gust SpeedMPH,PrecipitationIn, CloudCover, Events, WindDirDegrees
2013-7-1,87,82,78,64,62,59,61,49,38,29.93,29.87,29.81,10,10,10,9,5,,0.00,1,,347
2013-7-2,89,84,78,68,65,63,65,57,43,30.01,29.96,29.91,10,10,10,9,5,16,0.00,4,,49
2013-7-3,87,81,75,72,68,64,83,65,49,30.03,29.98,29.94,10,10,4,9,4,,0.11,4,,70
2013-7-4,87,81,75,73,71,70,89,74,55,30.00,29.96,29.93,10,10,8,9,5,,0.00,3,,48
2013-7-5,82,76,71,73,70,66,89,79,65,30.06,30.00,29.96,10,9,1,9,4,23,1.16,3,,138
2013-7-6,84,80,75,73,72,70,89,77,66,30.03,30.00,29.96,10,10,5,12,5,17,0.41,4,,148
2013-7-7,89,82,75,73,72,72,89,77,58,30.13,30.06,29.99,10,10,5,12,5,,0.62,5,,161
2013-7-8,87,81,75,75,72,70,89,79,58,30.19,30.14,30.07,10,10,1,10,3,18,1.35,3,,149
2013-7-9,91,84,77,73,72,70,89,70,52,30.21,30.15,30.09,10,10,10,9,2,,0.00,2,,166
2013-7-10,93,86,78,75,73,70,83,69,49,30.12,30.07,30.00,10,10,9,12,3,22,0.01,2,,206
2013-7-11,87,80,73,73,72,68,89,77,58,30.02,29.98,29.90,10,10,5,20,4,26,0.14,3,,244
2013-7-12,93,84,75,72,70,66,89,66,41,29.97,29.92,29.86,10,10,10,8,3,,0.00,1,,343
2013-7-13,91,84,78,73,71,66,79,64,49,29.95,29.91,29.87,10,10,9,12,3,18,0.00,1,,30
2013-7-14,89,84,78,73,70,66,79,66,51,30.02,29.97,29.91,10,10,9,10,6,16,0.00,2,,140
2013-7-15,89,83,77,73,71,70,83,69,55,30.11,30.06,30.01,10,10,5,12,4,17,0.31,2,,111
2013-7-16,86,82,78,73,72,70,83,74,62,30.17,30.12,30.06,10,10,10,12,4,17,0.27,4,,71
2013-7-17,91,84,78,73,72,66,83,67,49,30.22,30.17,30.12,10,10,10,12,5,21,0.00,2,,65
2013-7-18,91,84,78,73,71,66,79,66,49,30.15,30.09,30.02,10,10,2,12,3,18,0.38,1,,30
2013-7-19,91,84,78,73,71,66,79,65,46,30.07,30.02,29.96,10,10,10,12,4,17,0.00,1,,77
2013-7-20,91,84,78,73,71,68,78,66,46,30.03,29.99,29.95,10,10,5,13,3,17,0.03,2,,191
2013-7-21,82,78,73,73,72,70,89,75,70,30.11,30.04,30.00,10,10,3,10,5,23,0.32,2,,185
2013-7-22,93,86,78,75,74,70,84,70,52,30.08,30.05,30.02,10,10,10,14,7,22,0.00,2,,195
2013-7-23,95,88,80,75,73,70,84,67,46,30.08,30.02,29.95,10,10,4,12,6,21,0.00,2,,221
2013-7-24,95,86,78,75,73,70,83,66,44,30.01,29.96,29.90,10,10,9,12,6,18,0.00,1,,233
2013-7-25,93,86,80,73,71,70,79,62,46,30.05,30.00,29.93,10,10,10,8,5,,0.00,2,,304
2013-7-26,93,86,80,73,68,64,74,55,41,30.08,30.03,29.98,10,10,10,9,4,,0.00,0,,341
2013-7-27,84,81,78,75,73,70,79,72,66,30.00,29.95,29.88,10,10,7,12,5,20,0.01,3,,212
2013-7-28,89,83,77,73,71,68,83,67,49,30.03,29.97,29.90,10,10,10,10,4,20,0.01,2,,318
2013-7-29,95,88,80,73,72,70,79,62,44,30.11,30.07,30.01,10,10,10,8,3,,0.00,2,,333
2013-7-30,91,86,82,73,73,70,74,64,52,30.16,30.12,30.08,10,10,3,10,4,17,0.00,2,,235
2013-7-31,93,88,82,77,73,70,74,65,52,30.12,30.06,30.00,10,10,7,10,3,,0.08,2,,226